createdAt,value
2022-08-03T00:02:35.691Z,3.50
2022-08-03T00:06:38.816Z,3.35
2022-08-03T00:10:41.388Z,3.30
2022-08-03T00:14:45.337Z,2.95
2022-08-03T00:18:47.862Z,3.42
2022-08-03T00:22:50.618Z,3.37
2022-08-03T00:26:53.316Z,3.90
2022-08-03T00:30:57.306Z,3.10
2022-08-03T00:34:59.850Z,3.40
2022-08-03T00:39:02.412Z,3.40
2022-08-03T00:43:07.560Z,3.60
2022-08-03T00:47:11.987Z,3.63
2022-08-03T00:51:14.641Z,3.30
2022-08-03T00:55:17.700Z,3.80
2022-08-03T00:59:20.279Z,3.33
2022-08-03T01:03:24.175Z,3.40
2022-08-03T01:07:38.029Z,3.45
2022-08-03T01:12:00.501Z,3.80
2022-08-03T01:16:10.643Z,3.40
2022-08-03T01:20:15.997Z,3.80
2022-08-03T01:24:35.511Z,3.80
2022-08-03T01:28:57.436Z,3.70
2022-08-03T01:33:05.696Z,3.92
2022-08-03T01:37:11.808Z,3.47
2022-08-03T01:41:19.602Z,3.28
2022-08-03T01:45:23.502Z,3.70
2022-08-03T01:49:29.592Z,3.40
2022-08-03T01:53:34.612Z,3.53
2022-08-03T01:58:05.439Z,4.00
2022-08-03T02:02:15.312Z,4.10
2022-08-03T02:07:01.351Z,3.92
2022-08-03T02:10:53.587Z,3.97
2022-08-03T02:19:06.308Z,3.72
2022-08-03T02:23:10.789Z,4.15
2022-08-03T02:27:19.577Z,4.00
2022-08-03T02:31:26.045Z,4.40
2022-08-03T02:35:31.379Z,3.67
2022-08-03T02:39:37.675Z,4.22
2022-08-03T02:44:06.874Z,4.10
2022-08-03T02:48:06.728Z,4.03
2022-08-03T02:52:13.216Z,4.20
2022-08-03T02:56:20.632Z,3.88
2022-08-03T03:00:27.885Z,3.72
2022-08-03T03:04:32.983Z,3.92
2022-08-03T03:08:36.303Z,4.05
2022-08-03T03:12:44.197Z,3.90
2022-08-03T03:16:50.674Z,3.90
2022-08-03T03:20:55.340Z,3.75
2022-08-03T03:29:02.783Z,3.70
2022-08-03T03:33:05.580Z,4.43
2022-08-03T03:37:08.127Z,4.10
2022-08-03T03:41:11.324Z,4.13
2022-08-03T03:45:15.452Z,4.55
2022-08-03T03:49:18.049Z,4.10
2022-08-03T03:53:21.057Z,4.40
2022-08-03T03:57:23.833Z,4.10
2022-08-03T04:01:28.087Z,4.20
2022-08-03T04:05:48.531Z,4.40
2022-08-03T04:10:14.327Z,4.20
2022-08-03T04:14:20.111Z,4.30
2022-08-03T04:18:25.559Z,4.20
2022-08-03T04:22:32.576Z,4.10
2022-08-03T04:26:40.421Z,4.40
2022-08-03T04:30:48.911Z,3.88
2022-08-03T04:34:53.493Z,4.50
2022-08-03T04:39:01.815Z,4.38
2022-08-03T04:43:06.429Z,4.70
2022-08-03T04:47:09.393Z,4.43
2022-08-03T04:51:14.136Z,5.53
2022-08-03T04:55:26.868Z,4.28
2022-08-03T04:59:29.508Z,4.10
2022-08-03T05:03:32.631Z,3.93
2022-08-03T05:07:36.815Z,4.00
2022-08-03T05:11:39.380Z,4.55
2022-08-03T05:15:43.271Z,4.20
2022-08-03T05:19:45.990Z,4.47
2022-08-03T05:23:49.899Z,4.30
2022-08-03T05:27:52.420Z,4.20
2022-08-03T05:31:54.977Z,4.40
2022-08-03T05:36:03.133Z,4.20
2022-08-03T05:40:08.980Z,4.25
2022-08-03T05:44:11.585Z,4.35
2022-08-03T05:48:14.093Z,4.07
2022-08-03T05:52:16.762Z,4.20
2022-08-03T05:56:25.207Z,4.55
2022-08-03T06:00:27.787Z,4.20
2022-08-03T06:04:30.352Z,3.90
2022-08-03T06:08:32.966Z,3.60
2022-08-03T06:12:36.922Z,3.63
2022-08-03T06:16:39.476Z,3.55
2022-08-03T06:20:42.018Z,3.63
2022-08-03T06:24:53.544Z,3.60
2022-08-03T06:28:58.486Z,3.13
2022-08-03T06:33:01.952Z,3.30
2022-08-03T06:37:05.015Z,3.20
2022-08-03T06:41:07.570Z,2.83
2022-08-03T06:45:12.076Z,3.05
2022-08-03T06:49:14.650Z,2.70
2022-08-03T06:53:19.668Z,3.75
2022-08-03T06:57:23.968Z,2.95
2022-08-03T07:01:27.900Z,2.75
2022-08-03T07:05:30.716Z,3.08
2022-08-03T07:09:33.286Z,2.97
2022-08-03T07:13:35.818Z,2.72
2022-08-03T07:17:39.728Z,2.90
2022-08-03T07:21:42.287Z,2.72
2022-08-03T07:25:44.823Z,2.55
2022-08-03T07:29:47.375Z,2.58
2022-08-03T07:33:51.282Z,2.40
2022-08-03T07:37:54.484Z,2.50
2022-08-03T07:41:57.350Z,2.67
2022-08-03T07:45:59.877Z,2.45
2022-08-03T07:50:05.315Z,2.55
2022-08-03T07:54:10.075Z,2.20
2022-08-03T07:58:16.496Z,2.30
2022-08-03T08:02:21.952Z,2.40
2022-08-03T08:06:25.844Z,2.40
2022-08-03T08:10:29.475Z,2.05
2022-08-03T08:14:32.072Z,2.03
2022-08-03T08:18:34.656Z,2.10
2022-08-03T08:22:38.500Z,2.30
2022-08-03T08:26:43.051Z,1.90
2022-08-03T08:30:45.946Z,1.95
2022-08-03T08:34:48.451Z,2.10
2022-08-03T08:38:52.367Z,1.98
2022-08-03T08:42:59.172Z,2.10
2022-08-03T08:47:03.968Z,1.85
2022-08-03T08:51:07.012Z,2.08
2022-08-03T08:55:14.372Z,2.17
2022-08-03T08:59:18.224Z,2.10
2022-08-03T09:03:29.674Z,1.70
2022-08-03T09:07:33.517Z,2.20
2022-08-03T09:11:51.554Z,2.13
2022-08-03T09:16:15.801Z,1.77
2022-08-03T09:20:19.432Z,2.00
2022-08-03T09:24:40.826Z,1.80
2022-08-03T09:28:53.936Z,2.10
2022-08-03T09:33:08.349Z,2.00
2022-08-03T09:37:16.113Z,2.00
2022-08-03T09:41:19.708Z,2.10
2022-08-03T09:45:29.934Z,1.77
2022-08-03T09:49:32.929Z,2.00
2022-08-03T09:53:51.468Z,1.80
2022-08-03T09:58:06.939Z,2.00
2022-08-03T10:02:23.555Z,2.10
2022-08-03T10:06:28.947Z,1.80
2022-08-03T10:10:43.127Z,1.73
2022-08-03T10:14:46.667Z,1.83
2022-08-03T10:18:50.565Z,2.08
2022-08-03T10:22:54.353Z,1.80
2022-08-03T10:27:03.249Z,1.70
2022-08-03T10:31:07.685Z,1.70
2022-08-03T10:35:19.936Z,1.92
2022-08-03T10:39:28.461Z,2.10
2022-08-03T10:43:39.708Z,2.10
2022-08-03T10:47:42.664Z,2.03
2022-08-03T10:51:48.265Z,1.77
2022-08-03T10:56:14.016Z,2.10
2022-08-03T11:00:22.446Z,1.70
2022-08-03T11:04:25.440Z,2.00
2022-08-03T11:08:31.631Z,2.00
2022-08-03T11:12:34.806Z,1.95
2022-08-03T11:16:39.030Z,2.10
2022-08-03T11:20:46.389Z,2.00
2022-08-03T11:25:00.117Z,1.83
2022-08-03T11:29:28.364Z,1.98
2022-08-03T11:33:31.614Z,2.03
2022-08-03T11:37:34.192Z,1.90
2022-08-03T11:41:42.762Z,1.60
2022-08-03T11:45:58.397Z,1.80
2022-08-03T11:50:02.068Z,1.80
2022-08-03T11:54:07.062Z,2.00
2022-08-03T11:59:16.384Z,1.70
2022-08-03T12:02:39.393Z,1.80
2022-08-03T12:06:55.344Z,1.50
2022-08-03T12:11:00.393Z,1.70
2022-08-03T12:15:05.742Z,1.95
2022-08-03T12:19:08.386Z,1.63
2022-08-03T12:23:12.267Z,2.40
2022-08-03T12:27:24.093Z,1.63
2022-08-03T12:31:28.031Z,1.67
2022-08-03T12:35:30.720Z,1.70
2022-08-03T12:39:33.355Z,1.60
2022-08-03T12:43:36.638Z,1.70
2022-08-03T12:47:56.082Z,2.00
2022-08-03T12:52:04.061Z,1.48
2022-08-03T12:56:09.525Z,2.30
2022-08-03T13:00:21.704Z,1.70
2022-08-03T13:04:35.499Z,1.50
2022-08-03T13:08:38.484Z,1.70
2022-08-03T13:12:48.589Z,1.92
2022-08-03T13:16:51.174Z,1.80
2022-08-03T13:20:55.326Z,1.88
2022-08-03T13:24:58.373Z,1.70
2022-08-03T13:29:00.930Z,1.80
2022-08-03T13:33:03.519Z,1.70
2022-08-03T13:37:09.784Z,1.60
2022-08-03T13:41:15.477Z,1.40
2022-08-03T13:45:18.804Z,1.50
2022-08-03T13:49:21.414Z,1.60
2022-08-03T13:53:25.417Z,1.70
2022-08-03T13:58:03.395Z,1.90
2022-08-03T14:01:55.259Z,1.70
2022-08-03T14:05:58.331Z,1.60
2022-08-03T14:10:02.553Z,1.60
2022-08-03T14:14:05.205Z,1.77
2022-08-03T14:18:15.406Z,1.55
2022-08-03T14:22:18.581Z,1.40
2022-08-03T14:26:22.477Z,1.35
2022-08-03T14:30:25.061Z,1.35
2022-08-03T14:34:27.681Z,1.50
2022-08-03T14:38:30.356Z,1.65
2022-08-03T14:42:34.253Z,1.60
2022-08-03T14:46:36.813Z,1.58
2022-08-03T14:50:43.233Z,1.50
2022-08-03T14:54:49.527Z,1.50
2022-08-03T14:58:53.506Z,1.70
2022-08-03T15:02:56.127Z,1.83
2022-08-03T15:06:58.804Z,1.67
2022-08-03T15:11:01.349Z,1.48
2022-08-03T15:15:09.765Z,1.50
2022-08-03T15:20:03.681Z,1.60
2022-08-03T15:23:34.953Z,1.75
2022-08-03T15:27:37.505Z,1.58
2022-08-03T15:32:03.962Z,2.08
2022-08-03T15:36:08.830Z,1.60
2022-08-03T15:40:12.401Z,1.50
2022-08-03T15:44:14.957Z,1.70
2022-08-03T15:48:20.090Z,1.60
2022-08-03T15:56:31.827Z,1.55
2022-08-03T16:00:34.365Z,1.90
2022-08-03T16:04:38.257Z,1.67
2022-08-03T16:08:40.989Z,1.70
2022-08-03T16:12:43.935Z,1.60
2022-08-03T16:16:46.673Z,1.50
2022-08-03T16:20:50.741Z,1.90
2022-08-03T16:24:53.419Z,1.70
2022-08-03T16:28:56.414Z,2.08
2022-08-03T16:32:59.048Z,1.90
2022-08-03T16:37:22.126Z,1.90
2022-08-03T16:41:25.772Z,1.80
2022-08-03T16:45:48.814Z,1.73
2022-08-03T16:49:53.990Z,1.80
2022-08-03T16:54:07.384Z,1.67
2022-08-03T16:58:12.450Z,1.80
2022-08-03T17:02:22.248Z,1.70
2022-08-03T17:06:34.048Z,1.60
2022-08-03T17:10:41.297Z,2.03
2022-08-03T17:14:47.208Z,3.92
2022-08-03T17:18:54.085Z,2.00
2022-08-03T17:23:04.107Z,2.00
2022-08-03T17:28:48.436Z,3.10
2022-08-03T17:31:48.809Z,2.30
2022-08-03T17:35:55.366Z,2.20
2022-08-03T17:40:01.857Z,2.30
2022-08-03T17:44:08.321Z,2.53
2022-08-03T17:48:20.571Z,2.30
2022-08-03T17:52:31.723Z,2.55
2022-08-03T17:56:46.373Z,3.03
2022-08-03T18:01:59.837Z,2.90
2022-08-03T18:06:10.930Z,2.20
2022-08-03T18:10:04.356Z,2.30
2022-08-03T18:14:16.620Z,2.38
2022-08-03T18:18:32.663Z,2.38
2022-08-03T18:22:35.492Z,2.30
2022-08-03T18:26:39.323Z,2.60
2022-08-03T18:30:53.383Z,2.45
2022-08-03T18:35:03.717Z,2.30
2022-08-03T18:39:06.945Z,2.10
2022-08-03T18:43:10.623Z,2.30
2022-08-03T18:47:50.581Z,2.30
2022-08-03T18:52:02.124Z,2.53
2022-08-03T18:56:08.993Z,2.83
2022-08-03T19:00:15.913Z,2.83
2022-08-03T19:04:29.887Z,6.00
2022-08-03T19:08:40.207Z,4.90
2022-08-03T19:12:50.246Z,3.58
2022-08-03T19:17:01.020Z,2.75
2022-08-03T19:21:15.436Z,2.72
2022-08-03T19:25:19.819Z,2.70
2022-08-03T19:29:57.879Z,2.70
2022-08-03T19:34:03.427Z,2.40
2022-08-03T19:38:06.037Z,2.58
2022-08-03T19:42:19.999Z,2.40
2022-08-03T19:46:30.834Z,3.00
2022-08-03T19:50:36.244Z,2.63
2022-08-03T19:54:54.178Z,3.00
2022-08-03T19:58:59.825Z,2.63
2022-08-03T20:03:02.592Z,3.10
2022-08-03T20:07:05.417Z,2.58
2022-08-03T20:11:09.311Z,2.40
2022-08-03T20:15:14.423Z,2.70
2022-08-03T20:19:21.124Z,2.45
2022-08-03T20:27:30.772Z,2.97
2022-08-03T20:31:36.489Z,2.60
2022-08-03T20:35:42.055Z,3.00
2022-08-03T20:39:49.699Z,2.65
2022-08-03T20:43:52.501Z,2.63
2022-08-03T20:47:58.372Z,2.80
2022-08-03T20:52:00.920Z,2.60
2022-08-03T20:56:03.762Z,2.90
2022-08-03T21:04:16.109Z,2.88
2022-08-03T21:08:27.559Z,2.85
2022-08-03T21:12:39.990Z,2.90
2022-08-03T21:16:46.181Z,3.25
2022-08-03T21:20:51.620Z,3.03
2022-08-03T21:24:57.266Z,2.92
2022-08-03T21:29:00.688Z,3.10
2022-08-03T21:33:04.677Z,2.90
2022-08-03T21:37:08.728Z,3.10
2022-08-03T21:41:11.416Z,2.92
2022-08-03T21:45:17.352Z,3.28
2022-08-03T21:50:05.702Z,3.10
2022-08-03T21:54:04.277Z,3.70
2022-08-03T21:58:07.627Z,3.40
2022-08-03T22:06:28.070Z,2.90
2022-08-03T22:10:32.080Z,3.00
2022-08-03T22:14:34.726Z,3.20
2022-08-03T22:18:38.034Z,3.42
2022-08-03T22:22:41.647Z,3.13
2022-08-03T22:27:18.681Z,3.50
2022-08-03T22:31:30.892Z,3.45
2022-08-03T22:35:47.853Z,3.28
2022-08-03T22:39:51.262Z,3.45
2022-08-03T22:43:55.534Z,3.55
2022-08-03T22:47:59.520Z,3.50
2022-08-03T22:52:03.109Z,3.30
2022-08-03T22:56:06.270Z,3.40
2022-08-03T23:00:13.087Z,3.40
2022-08-03T23:04:17.628Z,3.42
2022-08-03T23:08:24.694Z,3.53
2022-08-03T23:12:29.479Z,3.45
2022-08-03T23:16:36.619Z,3.50
2022-08-03T23:20:40.163Z,3.78
2022-08-03T23:24:43.723Z,3.53
2022-08-03T23:28:47.810Z,3.50
2022-08-03T23:32:54.644Z,3.28
2022-08-03T23:36:58.177Z,3.65
2022-08-03T23:41:03.359Z,3.20
2022-08-03T23:45:07.170Z,3.80
2022-08-03T23:49:11.062Z,4.18
2022-08-03T23:53:22.990Z,4.00
2022-08-03T23:57:31.105Z,3.67
